sensor_id;sensor_type;location;lat;lon;timestamp;P1;durP1;ratioP1;P2;durP2;ratioP2
64467;SDS011;50853;46.836;16.820;2023-11-21T00:01:27;11.77;;;7.28;;
64467;SDS011;50853;46.836;16.820;2023-11-21T00:03:53;12.63;;;7.35;;
64467;SDS011;50853;46.836;16.820;2023-11-21T00:06:20;11.90;;;6.60;;
64467;SDS011;50853;46.836;16.820;2023-11-21T00:08:46;14.45;;;8.00;;
64467;SDS011;50853;46.836;16.820;2023-11-21T00:11:12;11.50;;;7.05;;
64467;SDS011;50853;46.836;16.820;2023-11-21T00:13:37;12.18;;;7.45;;
64467;SDS011;50853;46.836;16.820;2023-11-21T00:16:04;11.27;;;7.25;;
64467;SDS011;50853;46.836;16.820;2023-11-21T00:18:30;12.45;;;6.75;;
64467;SDS011;50853;46.836;16.820;2023-11-21T00:20:56;10.63;;;6.80;;
64467;SDS011;50853;46.836;16.820;2023-11-21T00:23:24;13.38;;;7.70;;
64467;SDS011;50853;46.836;16.820;2023-11-21T00:25:50;10.40;;;6.47;;
64467;SDS011;50853;46.836;16.820;2023-11-21T00:28:16;13.98;;;7.53;;
64467;SDS011;50853;46.836;16.820;2023-11-21T00:30:42;10.38;;;6.40;;
64467;SDS011;50853;46.836;16.820;2023-11-21T00:33:07;12.32;;;7.30;;
64467;SDS011;50853;46.836;16.820;2023-11-21T00:35:33;9.80;;;6.38;;
64467;SDS011;50853;46.836;16.820;2023-11-21T00:37:59;11.23;;;7.30;;
64467;SDS011;50853;46.836;16.820;2023-11-21T00:40:25;10.07;;;6.80;;
64467;SDS011;50853;46.836;16.820;2023-11-21T00:42:51;10.80;;;6.53;;
64467;SDS011;50853;46.836;16.820;2023-11-21T00:45:16;12.25;;;6.95;;
64467;SDS011;50853;46.836;16.820;2023-11-21T00:47:42;10.20;;;6.07;;
64467;SDS011;50853;46.836;16.820;2023-11-21T00:50:08;13.02;;;6.80;;
64467;SDS011;50853;46.836;16.820;2023-11-21T00:52:34;9.57;;;6.50;;
64467;SDS011;50853;46.836;16.820;2023-11-21T00:55:01;11.95;;;7.32;;
64467;SDS011;50853;46.836;16.820;2023-11-21T00:57:28;11.10;;;6.43;;
64467;SDS011;50853;46.836;16.820;2023-11-21T00:59:54;11.05;;;6.70;;
64467;SDS011;50853;46.836;16.820;2023-11-21T01:02:20;10.82;;;6.30;;
64467;SDS011;50853;46.836;16.820;2023-11-21T01:04:46;11.98;;;6.43;;
64467;SDS011;50853;46.836;16.820;2023-11-21T01:07:13;12.98;;;6.85;;
64467;SDS011;50853;46.836;16.820;2023-11-21T01:09:38;11.25;;;6.93;;
64467;SDS011;50853;46.836;16.820;2023-11-21T01:12:04;11.52;;;6.93;;
64467;SDS011;50853;46.836;16.820;2023-11-21T01:14:30;9.10;;;6.50;;
64467;SDS011;50853;46.836;16.820;2023-11-21T01:16:56;13.68;;;6.90;;
64467;SDS011;50853;46.836;16.820;2023-11-21T01:19:22;12.02;;;6.80;;
64467;SDS011;50853;46.836;16.820;2023-11-21T01:21:47;10.25;;;6.30;;
64467;SDS011;50853;46.836;16.820;2023-11-21T01:24:13;10.95;;;6.65;;
64467;SDS011;50853;46.836;16.820;2023-11-21T01:26:39;8.45;;;6.05;;
64467;SDS011;50853;46.836;16.820;2023-11-21T01:29:05;9.82;;;6.18;;
64467;SDS011;50853;46.836;16.820;2023-11-21T01:31:31;10.98;;;6.65;;
64467;SDS011;50853;46.836;16.820;2023-11-21T01:33:57;10.85;;;7.38;;
64467;SDS011;50853;46.836;16.820;2023-11-21T01:36:29;8.88;;;6.07;;
64467;SDS011;50853;46.836;16.820;2023-11-21T01:38:57;10.82;;;6.63;;
64467;SDS011;50853;46.836;16.820;2023-11-21T01:41:25;10.95;;;7.15;;
64467;SDS011;50853;46.836;16.820;2023-11-21T01:43:52;10.40;;;6.50;;
64467;SDS011;50853;46.836;16.820;2023-11-21T01:46:19;9.52;;;6.43;;
64467;SDS011;50853;46.836;16.820;2023-11-21T01:48:45;11.40;;;6.22;;
64467;SDS011;50853;46.836;16.820;2023-11-21T01:51:13;11.10;;;6.65;;
64467;SDS011;50853;46.836;16.820;2023-11-21T01:53:39;10.85;;;6.78;;
64467;SDS011;50853;46.836;16.820;2023-11-21T01:56:06;10.77;;;6.70;;
64467;SDS011;50853;46.836;16.820;2023-11-21T01:58:33;9.82;;;6.68;;
64467;SDS011;50853;46.836;16.820;2023-11-21T02:00:59;9.82;;;6.43;;
64467;SDS011;50853;46.836;16.820;2023-11-21T02:03:25;10.07;;;6.30;;
64467;SDS011;50853;46.836;16.820;2023-11-21T02:05:52;13.90;;;7.18;;
64467;SDS011;50853;46.836;16.820;2023-11-21T02:10:45;12.50;;;7.78;;
64467;SDS011;50853;46.836;16.820;2023-11-21T02:13:11;9.98;;;6.55;;
64467;SDS011;50853;46.836;16.820;2023-11-21T02:15:37;12.18;;;6.60;;
64467;SDS011;50853;46.836;16.820;2023-11-21T02:18:03;10.07;;;6.80;;
64467;SDS011;50853;46.836;16.820;2023-11-21T02:20:31;10.63;;;6.50;;
64467;SDS011;50853;46.836;16.820;2023-11-21T02:23:00;8.95;;;6.70;;
64467;SDS011;50853;46.836;16.820;2023-11-21T02:25:27;11.53;;;7.40;;
64467;SDS011;50853;46.836;16.820;2023-11-21T02:27:57;11.27;;;7.07;;
64467;SDS011;50853;46.836;16.820;2023-11-21T02:30:25;9.63;;;6.57;;
64467;SDS011;50853;46.836;16.820;2023-11-21T02:32:58;10.18;;;7.22;;
64467;SDS011;50853;46.836;16.820;2023-11-21T02:35:25;11.05;;;6.57;;
64467;SDS011;50853;46.836;16.820;2023-11-21T02:37:52;12.98;;;6.93;;
64467;SDS011;50853;46.836;16.820;2023-11-21T02:40:18;9.43;;;6.03;;
64467;SDS011;50853;46.836;16.820;2023-11-21T02:45:12;11.20;;;6.68;;
64467;SDS011;50853;46.836;16.820;2023-11-21T02:47:42;10.32;;;6.68;;
64467;SDS011;50853;46.836;16.820;2023-11-21T02:50:08;12.50;;;6.85;;
64467;SDS011;50853;46.836;16.820;2023-11-21T02:52:34;10.93;;;7.20;;
64467;SDS011;50853;46.836;16.820;2023-11-21T02:55:04;10.65;;;6.60;;
64467;SDS011;50853;46.836;16.820;2023-11-21T02:57:30;10.73;;;6.85;;
64467;SDS011;50853;46.836;16.820;2023-11-21T02:59:55;12.95;;;7.55;;
64467;SDS011;50853;46.836;16.820;2023-11-21T03:02:21;10.52;;;6.78;;
64467;SDS011;50853;46.836;16.820;2023-11-21T03:04:48;9.87;;;6.40;;
64467;SDS011;50853;46.836;16.820;2023-11-21T03:07:14;10.07;;;6.88;;
64467;SDS011;50853;46.836;16.820;2023-11-21T03:09:40;9.98;;;6.63;;
64467;SDS011;50853;46.836;16.820;2023-11-21T03:12:07;12.13;;;7.07;;
64467;SDS011;50853;46.836;16.820;2023-11-21T03:14:34;10.98;;;6.22;;
64467;SDS011;50853;46.836;16.820;2023-11-21T03:17:00;10.05;;;6.60;;
64467;SDS011;50853;46.836;16.820;2023-11-21T03:19:26;10.25;;;6.85;;
64467;SDS011;50853;46.836;16.820;2023-11-21T03:21:52;10.25;;;6.65;;
64467;SDS011;50853;46.836;16.820;2023-11-21T03:24:18;10.73;;;6.18;;
64467;SDS011;50853;46.836;16.820;2023-11-21T03:26:48;11.07;;;6.27;;
64467;SDS011;50853;46.836;16.820;2023-11-21T03:29:14;9.68;;;6.82;;
64467;SDS011;50853;46.836;16.820;2023-11-21T03:31:40;9.23;;;6.40;;
64467;SDS011;50853;46.836;16.820;2023-11-21T03:34:06;10.15;;;6.70;;
64467;SDS011;50853;46.836;16.820;2023-11-21T03:36:35;10.50;;;7.30;;
64467;SDS011;50853;46.836;16.820;2023-11-21T03:39:01;10.32;;;6.85;;
64467;SDS011;50853;46.836;16.820;2023-11-21T03:41:27;8.93;;;6.03;;
64467;SDS011;50853;46.836;16.820;2023-11-21T03:43:53;9.10;;;6.55;;
64467;SDS011;50853;46.836;16.820;2023-11-21T03:46:19;10.23;;;6.68;;
64467;SDS011;50853;46.836;16.820;2023-11-21T03:48:44;10.70;;;7.05;;
64467;SDS011;50853;46.836;16.820;2023-11-21T03:51:10;10.63;;;5.93;;
64467;SDS011;50853;46.836;16.820;2023-11-21T03:53:36;11.75;;;7.10;;
64467;SDS011;50853;46.836;16.820;2023-11-21T03:56:02;11.40;;;7.00;;
64467;SDS011;50853;46.836;16.820;2023-11-21T03:58:29;9.60;;;6.30;;
64467;SDS011;50853;46.836;16.820;2023-11-21T04:00:54;11.48;;;7.40;;
64467;SDS011;50853;46.836;16.820;2023-11-21T04:03:20;10.45;;;6.28;;
64467;SDS011;50853;46.836;16.820;2023-11-21T04:05:46;10.85;;;6.70;;
64467;SDS011;50853;46.836;16.820;2023-11-21T04:08:12;10.10;;;6.13;;
64467;SDS011;50853;46.836;16.820;2023-11-21T04:10:38;10.07;;;6.88;;
64467;SDS011;50853;46.836;16.820;2023-11-21T04:13:04;10.30;;;6.67;;
64467;SDS011;50853;46.836;16.820;2023-11-21T04:15:32;10.23;;;6.85;;
64467;SDS011;50853;46.836;16.820;2023-11-21T04:17:57;10.40;;;6.45;;
64467;SDS011;50853;46.836;16.820;2023-11-21T04:20:24;9.23;;;6.35;;
64467;SDS011;50853;46.836;16.820;2023-11-21T04:22:50;10.45;;;6.25;;
64467;SDS011;50853;46.836;16.820;2023-11-21T04:25:16;12.18;;;7.30;;
64467;SDS011;50853;46.836;16.820;2023-11-21T04:27:44;11.70;;;6.25;;
64467;SDS011;50853;46.836;16.820;2023-11-21T04:30:10;12.50;;;7.07;;
64467;SDS011;50853;46.836;16.820;2023-11-21T04:32:37;10.88;;;6.88;;
64467;SDS011;50853;46.836;16.820;2023-11-21T04:35:04;12.10;;;7.10;;
64467;SDS011;50853;46.836;16.820;2023-11-21T04:37:30;9.38;;;6.70;;
64467;SDS011;50853;46.836;16.820;2023-11-21T04:39:56;9.13;;;6.32;;
64467;SDS011;50853;46.836;16.820;2023-11-21T04:42:22;10.13;;;6.68;;
64467;SDS011;50853;46.836;16.820;2023-11-21T04:44:48;10.27;;;7.18;;
64467;SDS011;50853;46.836;16.820;2023-11-21T04:47:14;10.03;;;6.90;;
64467;SDS011;50853;46.836;16.820;2023-11-21T04:49:43;9.35;;;6.20;;
64467;SDS011;50853;46.836;16.820;2023-11-21T04:52:12;9.68;;;6.63;;
64467;SDS011;50853;46.836;16.820;2023-11-21T04:54:38;9.88;;;6.45;;
64467;SDS011;50853;46.836;16.820;2023-11-21T04:59:32;11.02;;;6.75;;
64467;SDS011;50853;46.836;16.820;2023-11-21T05:01:59;11.30;;;6.38;;
64467;SDS011;50853;46.836;16.820;2023-11-21T05:04:25;10.85;;;6.53;;
64467;SDS011;50853;46.836;16.820;2023-11-21T05:06:52;9.65;;;6.55;;
64467;SDS011;50853;46.836;16.820;2023-11-21T05:09:18;9.90;;;6.60;;
64467;SDS011;50853;46.836;16.820;2023-11-21T05:11:43;8.43;;;5.85;;
64467;SDS011;50853;46.836;16.820;2023-11-21T05:14:09;8.52;;;6.47;;
64467;SDS011;50853;46.836;16.820;2023-11-21T05:16:35;9.93;;;6.60;;
64467;SDS011;50853;46.836;16.820;2023-11-21T05:19:01;9.50;;;6.37;;
64467;SDS011;50853;46.836;16.820;2023-11-21T05:21:29;10.40;;;6.53;;
64467;SDS011;50853;46.836;16.820;2023-11-21T05:23:57;9.07;;;5.93;;
64467;SDS011;50853;46.836;16.820;2023-11-21T05:26:23;9.32;;;6.65;;
64467;SDS011;50853;46.836;16.820;2023-11-21T05:28:49;10.10;;;6.80;;
64467;SDS011;50853;46.836;16.820;2023-11-21T05:31:15;8.85;;;5.95;;
64467;SDS011;50853;46.836;16.820;2023-11-21T05:33:41;9.68;;;6.63;;
64467;SDS011;50853;46.836;16.820;2023-11-21T05:36:07;9.68;;;6.25;;
64467;SDS011;50853;46.836;16.820;2023-11-21T05:38:35;9.23;;;6.38;;
64467;SDS011;50853;46.836;16.820;2023-11-21T05:41:01;10.38;;;6.75;;
64467;SDS011;50853;46.836;16.820;2023-11-21T05:43:29;9.65;;;6.85;;
64467;SDS011;50853;46.836;16.820;2023-11-21T05:45:55;9.60;;;6.65;;
64467;SDS011;50853;46.836;16.820;2023-11-21T05:48:21;9.95;;;6.85;;
64467;SDS011;50853;46.836;16.820;2023-11-21T05:50:48;10.50;;;6.15;;
64467;SDS011;50853;46.836;16.820;2023-11-21T05:53:15;10.32;;;6.80;;
64467;SDS011;50853;46.836;16.820;2023-11-21T05:55:41;9.05;;;6.25;;
64467;SDS011;50853;46.836;16.820;2023-11-21T05:58:07;10.85;;;6.18;;
64467;SDS011;50853;46.836;16.820;2023-11-21T06:00:33;9.63;;;6.57;;
64467;SDS011;50853;46.836;16.820;2023-11-21T06:03:00;7.80;;;5.80;;
64467;SDS011;50853;46.836;16.820;2023-11-21T06:05:26;9.35;;;5.90;;
64467;SDS011;50853;46.836;16.820;2023-11-21T06:07:53;9.18;;;5.78;;
64467;SDS011;50853;46.836;16.820;2023-11-21T06:10:20;8.43;;;6.03;;
64467;SDS011;50853;46.836;16.820;2023-11-21T06:12:47;9.90;;;6.47;;
64467;SDS011;50853;46.836;16.820;2023-11-21T06:15:13;9.98;;;6.40;;
64467;SDS011;50853;46.836;16.820;2023-11-21T06:17:39;9.23;;;6.38;;
64467;SDS011;50853;46.836;16.820;2023-11-21T06:20:06;9.07;;;6.00;;
64467;SDS011;50853;46.836;16.820;2023-11-21T06:22:39;9.68;;;5.35;;
64467;SDS011;50853;46.836;16.820;2023-11-21T06:25:07;8.82;;;6.25;;
64467;SDS011;50853;46.836;16.820;2023-11-21T06:27:34;9.00;;;5.95;;
64467;SDS011;50853;46.836;16.820;2023-11-21T06:30:20;11.40;;;5.95;;
64467;SDS011;50853;46.836;16.820;2023-11-21T06:32:46;9.43;;;6.28;;
64467;SDS011;50853;46.836;16.820;2023-11-21T06:35:12;9.30;;;5.93;;
64467;SDS011;50853;46.836;16.820;2023-11-21T06:37:38;9.50;;;5.88;;
64467;SDS011;50853;46.836;16.820;2023-11-21T06:40:04;9.88;;;6.03;;
64467;SDS011;50853;46.836;16.820;2023-11-21T06:42:31;8.48;;;5.40;;
64467;SDS011;50853;46.836;16.820;2023-11-21T06:44:58;8.52;;;5.82;;
64467;SDS011;50853;46.836;16.820;2023-11-21T06:47:29;8.70;;;5.43;;
64467;SDS011;50853;46.836;16.820;2023-11-21T06:49:55;8.20;;;5.70;;
64467;SDS011;50853;46.836;16.820;2023-11-21T06:52:22;8.85;;;5.65;;
64467;SDS011;50853;46.836;16.820;2023-11-21T06:54:48;7.70;;;5.40;;
64467;SDS011;50853;46.836;16.820;2023-11-21T06:57:17;8.82;;;5.90;;
64467;SDS011;50853;46.836;16.820;2023-11-21T06:59:43;8.80;;;5.57;;
64467;SDS011;50853;46.836;16.820;2023-11-21T07:02:09;8.00;;;5.35;;
64467;SDS011;50853;46.836;16.820;2023-11-21T07:04:35;8.85;;;5.25;;
64467;SDS011;50853;46.836;16.820;2023-11-21T07:07:02;7.95;;;5.60;;
64467;SDS011;50853;46.836;16.820;2023-11-21T07:09:28;8.10;;;5.45;;
64467;SDS011;50853;46.836;16.820;2023-11-21T07:11:56;8.93;;;5.88;;
64467;SDS011;50853;46.836;16.820;2023-11-21T07:14:22;7.57;;;5.25;;
64467;SDS011;50853;46.836;16.820;2023-11-21T07:16:48;8.18;;;5.45;;
64467;SDS011;50853;46.836;16.820;2023-11-21T07:19:14;9.20;;;5.88;;
64467;SDS011;50853;46.836;16.820;2023-11-21T07:21:40;7.78;;;5.60;;
64467;SDS011;50853;46.836;16.820;2023-11-21T07:24:06;8.48;;;5.60;;
64467;SDS011;50853;46.836;16.820;2023-11-21T07:26:33;7.60;;;5.10;;
64467;SDS011;50853;46.836;16.820;2023-11-21T07:29:00;8.02;;;4.95;;
64467;SDS011;50853;46.836;16.820;2023-11-21T07:31:27;8.15;;;5.25;;
64467;SDS011;50853;46.836;16.820;2023-11-21T07:33:54;8.07;;;5.57;;
64467;SDS011;50853;46.836;16.820;2023-11-21T07:36:22;8.32;;;5.60;;
64467;SDS011;50853;46.836;16.820;2023-11-21T07:38:48;9.43;;;5.40;;
64467;SDS011;50853;46.836;16.820;2023-11-21T07:41:15;8.77;;;4.93;;
64467;SDS011;50853;46.836;16.820;2023-11-21T07:43:41;8.52;;;5.68;;
64467;SDS011;50853;46.836;16.820;2023-11-21T07:46:07;8.37;;;5.47;;
64467;SDS011;50853;46.836;16.820;2023-11-21T07:48:33;8.00;;;5.50;;
64467;SDS011;50853;46.836;16.820;2023-11-21T07:51:00;8.15;;;5.28;;
64467;SDS011;50853;46.836;16.820;2023-11-21T07:53:30;8.23;;;5.30;;
64467;SDS011;50853;46.836;16.820;2023-11-21T07:55:56;8.75;;;5.72;;
64467;SDS011;50853;46.836;16.820;2023-11-21T07:58:23;8.85;;;5.60;;
64467;SDS011;50853;46.836;16.820;2023-11-21T08:00:49;7.97;;;4.93;;
64467;SDS011;50853;46.836;16.820;2023-11-21T08:03:15;8.30;;;5.60;;
64467;SDS011;50853;46.836;16.820;2023-11-21T08:05:42;5.95;;;4.60;;
64467;SDS011;50853;46.836;16.820;2023-11-21T08:08:08;8.70;;;5.00;;
64467;SDS011;50853;46.836;16.820;2023-11-21T08:10:34;7.97;;;4.80;;
64467;SDS011;50853;46.836;16.820;2023-11-21T08:13:04;8.05;;;5.05;;
64467;SDS011;50853;46.836;16.820;2023-11-21T08:15:30;6.18;;;4.40;;
64467;SDS011;50853;46.836;16.820;2023-11-21T08:17:58;6.80;;;4.68;;
64467;SDS011;50853;46.836;16.820;2023-11-21T08:20:24;7.10;;;4.65;;
64467;SDS011;50853;46.836;16.820;2023-11-21T08:22:50;7.80;;;5.05;;
64467;SDS011;50853;46.836;16.820;2023-11-21T08:25:20;7.30;;;5.13;;
64467;SDS011;50853;46.836;16.820;2023-11-21T08:27:47;7.35;;;4.88;;
64467;SDS011;50853;46.836;16.820;2023-11-21T08:30:13;7.47;;;4.82;;
64467;SDS011;50853;46.836;16.820;2023-11-21T08:32:39;9.20;;;5.10;;
64467;SDS011;50853;46.836;16.820;2023-11-21T08:35:07;6.88;;;4.75;;
64467;SDS011;50853;46.836;16.820;2023-11-21T08:37:33;7.90;;;4.70;;
64467;SDS011;50853;46.836;16.820;2023-11-21T08:40:02;8.25;;;5.22;;
64467;SDS011;50853;46.836;16.820;2023-11-21T08:42:29;9.13;;;5.57;;
64467;SDS011;50853;46.836;16.820;2023-11-21T08:44:57;6.43;;;4.60;;
64467;SDS011;50853;46.836;16.820;2023-11-21T08:47:23;8.32;;;4.72;;
64467;SDS011;50853;46.836;16.820;2023-11-21T08:49:50;7.18;;;4.93;;
64467;SDS011;50853;46.836;16.820;2023-11-21T08:52:18;6.35;;;4.13;;
64467;SDS011;50853;46.836;16.820;2023-11-21T08:54:50;10.38;;;4.72;;
64467;SDS011;50853;46.836;16.820;2023-11-21T08:57:21;6.35;;;4.70;;
64467;SDS011;50853;46.836;16.820;2023-11-21T08:59:48;6.20;;;4.22;;
64467;SDS011;50853;46.836;16.820;2023-11-21T09:02:13;7.93;;;5.13;;
64467;SDS011;50853;46.836;16.820;2023-11-21T09:04:39;7.18;;;4.78;;
64467;SDS011;50853;46.836;16.820;2023-11-21T09:07:05;7.68;;;4.88;;
64467;SDS011;50853;46.836;16.820;2023-11-21T09:09:31;7.72;;;4.55;;
64467;SDS011;50853;46.836;16.820;2023-11-21T09:11:57;6.90;;;4.65;;
64467;SDS011;50853;46.836;16.820;2023-11-21T09:14:22;7.22;;;4.38;;
64467;SDS011;50853;46.836;16.820;2023-11-21T09:16:48;7.13;;;4.68;;
64467;SDS011;50853;46.836;16.820;2023-11-21T09:19:15;6.93;;;4.13;;
64467;SDS011;50853;46.836;16.820;2023-11-21T09:21:41;7.88;;;4.55;;
64467;SDS011;50853;46.836;16.820;2023-11-21T09:24:07;7.75;;;4.47;;
64467;SDS011;50853;46.836;16.820;2023-11-21T09:26:34;6.63;;;4.32;;
64467;SDS011;50853;46.836;16.820;2023-11-21T09:29:00;7.43;;;4.30;;
64467;SDS011;50853;46.836;16.820;2023-11-21T09:31:27;5.55;;;4.18;;
64467;SDS011;50853;46.836;16.820;2023-11-21T09:33:53;7.15;;;4.32;;
64467;SDS011;50853;46.836;16.820;2023-11-21T09:36:19;7.03;;;4.32;;
64467;SDS011;50853;46.836;16.820;2023-11-21T09:38:46;6.40;;;4.20;;
64467;SDS011;50853;46.836;16.820;2023-11-21T09:41:22;8.23;;;4.78;;
64467;SDS011;50853;46.836;16.820;2023-11-21T09:44:00;6.47;;;3.88;;
64467;SDS011;50853;46.836;16.820;2023-11-21T09:46:32;6.03;;;4.05;;
64467;SDS011;50853;46.836;16.820;2023-11-21T09:48:59;5.87;;;4.30;;
64467;SDS011;50853;46.836;16.820;2023-11-21T09:51:27;6.88;;;3.90;;
64467;SDS011;50853;46.836;16.820;2023-11-21T09:53:58;5.78;;;4.05;;
64467;SDS011;50853;46.836;16.820;2023-11-21T09:56:26;7.22;;;4.22;;
64467;SDS011;50853;46.836;16.820;2023-11-21T09:58:55;6.13;;;4.07;;
64467;SDS011;50853;46.836;16.820;2023-11-21T10:01:22;5.68;;;4.03;;
64467;SDS011;50853;46.836;16.820;2023-11-21T10:03:50;5.93;;;4.20;;
64467;SDS011;50853;46.836;16.820;2023-11-21T10:06:16;6.30;;;4.32;;
64467;SDS011;50853;46.836;16.820;2023-11-21T10:08:43;6.50;;;4.63;;
64467;SDS011;50853;46.836;16.820;2023-11-21T10:11:10;6.47;;;4.50;;
64467;SDS011;50853;46.836;16.820;2023-11-21T10:13:37;6.00;;;4.35;;
64467;SDS011;50853;46.836;16.820;2023-11-21T10:16:06;8.52;;;4.63;;
64467;SDS011;50853;46.836;16.820;2023-11-21T10:18:37;6.90;;;4.30;;
64467;SDS011;50853;46.836;16.820;2023-11-21T10:21:05;6.00;;;3.78;;
64467;SDS011;50853;46.836;16.820;2023-11-21T10:23:32;5.68;;;3.95;;
64467;SDS011;50853;46.836;16.820;2023-11-21T10:25:58;8.27;;;4.55;;
64467;SDS011;50853;46.836;16.820;2023-11-21T10:28:25;6.68;;;4.32;;
64467;SDS011;50853;46.836;16.820;2023-11-21T10:30:51;5.70;;;3.83;;
64467;SDS011;50853;46.836;16.820;2023-11-21T10:33:17;6.00;;;3.63;;
64467;SDS011;50853;46.836;16.820;2023-11-21T10:35:53;5.72;;;4.25;;
64467;SDS011;50853;46.836;16.820;2023-11-21T10:38:20;6.88;;;4.32;;
64467;SDS011;50853;46.836;16.820;2023-11-21T10:40:48;8.40;;;4.90;;
64467;SDS011;50853;46.836;16.820;2023-11-21T10:43:14;6.20;;;4.60;;
64467;SDS011;50853;46.836;16.820;2023-11-21T10:45:41;6.15;;;4.07;;
64467;SDS011;50853;46.836;16.820;2023-11-21T10:48:08;6.45;;;4.25;;
64467;SDS011;50853;46.836;16.820;2023-11-21T10:50:42;7.63;;;4.47;;
64467;SDS011;50853;46.836;16.820;2023-11-21T10:53:09;6.43;;;4.38;;
64467;SDS011;50853;46.836;16.820;2023-11-21T10:55:37;6.28;;;3.97;;
64467;SDS011;50853;46.836;16.820;2023-11-21T10:58:03;5.68;;;3.72;;
64467;SDS011;50853;46.836;16.820;2023-11-21T11:00:31;5.13;;;3.78;;
64467;SDS011;50853;46.836;16.820;2023-11-21T11:05:26;7.15;;;4.18;;
64467;SDS011;50853;46.836;16.820;2023-11-21T11:08:05;6.30;;;4.13;;
64467;SDS011;50853;46.836;16.820;2023-11-21T11:10:33;6.35;;;4.00;;
64467;SDS011;50853;46.836;16.820;2023-11-21T11:13:00;5.72;;;4.05;;
64467;SDS011;50853;46.836;16.820;2023-11-21T11:15:26;5.90;;;4.00;;
64467;SDS011;50853;46.836;16.820;2023-11-21T11:17:53;5.55;;;3.90;;
64467;SDS011;50853;46.836;16.820;2023-11-21T11:20:27;6.18;;;4.00;;
64467;SDS011;50853;46.836;16.820;2023-11-21T11:23:04;5.37;;;4.00;;
64467;SDS011;50853;46.836;16.820;2023-11-21T11:28:56;6.47;;;3.90;;
64467;SDS011;50853;46.836;16.820;2023-11-21T11:34:33;6.40;;;3.97;;
64467;SDS011;50853;46.836;16.820;2023-11-21T11:37:04;6.03;;;3.95;;
64467;SDS011;50853;46.836;16.820;2023-11-21T11:39:35;5.57;;;3.85;;
64467;SDS011;50853;46.836;16.820;2023-11-21T11:42:14;5.72;;;3.85;;
64467;SDS011;50853;46.836;16.820;2023-11-21T11:47:14;6.68;;;3.85;;
64467;SDS011;50853;46.836;16.820;2023-11-21T11:52:32;4.93;;;3.72;;
64467;SDS011;50853;46.836;16.820;2023-11-21T11:55:02;5.28;;;3.80;;
64467;SDS011;50853;46.836;16.820;2023-11-21T11:57:29;5.40;;;3.95;;
64467;SDS011;50853;46.836;16.820;2023-11-21T12:00:16;5.47;;;4.03;;
64467;SDS011;50853;46.836;16.820;2023-11-21T12:03:02;6.03;;;3.70;;
64467;SDS011;50853;46.836;16.820;2023-11-21T12:05:30;6.28;;;3.90;;
64467;SDS011;50853;46.836;16.820;2023-11-21T12:08:07;5.57;;;3.70;;
64467;SDS011;50853;46.836;16.820;2023-11-21T12:10:34;4.97;;;3.50;;
64467;SDS011;50853;46.836;16.820;2023-11-21T12:13:02;5.72;;;3.53;;
64467;SDS011;50853;46.836;16.820;2023-11-21T12:15:33;4.65;;;3.42;;
64467;SDS011;50853;46.836;16.820;2023-11-21T12:20:26;5.47;;;3.63;;
64467;SDS011;50853;46.836;16.820;2023-11-21T12:22:56;6.75;;;4.18;;
64467;SDS011;50853;46.836;16.820;2023-11-21T12:25:26;6.35;;;4.22;;
64467;SDS011;50853;46.836;16.820;2023-11-21T12:27:54;6.10;;;4.00;;
64467;SDS011;50853;46.836;16.820;2023-11-21T12:30:23;5.78;;;3.75;;
64467;SDS011;50853;46.836;16.820;2023-11-21T12:32:56;5.75;;;3.38;;
64467;SDS011;50853;46.836;16.820;2023-11-21T12:37:51;5.38;;;3.80;;
64467;SDS011;50853;46.836;16.820;2023-11-21T12:40:17;4.90;;;3.45;;
64467;SDS011;50853;46.836;16.820;2023-11-21T12:42:47;6.80;;;3.77;;
64467;SDS011;50853;46.836;16.820;2023-11-21T12:47:47;5.35;;;3.65;;
64467;SDS011;50853;46.836;16.820;2023-11-21T12:50:15;6.25;;;3.60;;
64467;SDS011;50853;46.836;16.820;2023-11-21T12:52:48;5.78;;;3.78;;
64467;SDS011;50853;46.836;16.820;2023-11-21T12:57:52;40.22;;;5.65;;
64467;SDS011;50853;46.836;16.820;2023-11-21T13:00:20;39.53;;;5.40;;
64467;SDS011;50853;46.836;16.820;2023-11-21T13:03:02;34.08;;;6.13;;
64467;SDS011;50853;46.836;16.820;2023-11-21T13:05:33;27.40;;;4.45;;
64467;SDS011;50853;46.836;16.820;2023-11-21T13:08:01;27.55;;;4.93;;
64467;SDS011;50853;46.836;16.820;2023-11-21T13:10:29;26.90;;;4.78;;
64467;SDS011;50853;46.836;16.820;2023-11-21T13:12:58;39.78;;;4.40;;
64467;SDS011;50853;46.836;16.820;2023-11-21T13:15:25;31.48;;;5.82;;
64467;SDS011;50853;46.836;16.820;2023-11-21T13:17:56;42.25;;;5.68;;
64467;SDS011;50853;46.836;16.820;2023-11-21T13:20:23;28.63;;;4.82;;
64467;SDS011;50853;46.836;16.820;2023-11-21T13:22:53;22.80;;;5.10;;
64467;SDS011;50853;46.836;16.820;2023-11-21T13:25:24;45.80;;;6.07;;
64467;SDS011;50853;46.836;16.820;2023-11-21T13:27:55;65.32;;;6.70;;
64467;SDS011;50853;46.836;16.820;2023-11-21T13:30:23;57.35;;;7.43;;
64467;SDS011;50853;46.836;16.820;2023-11-21T13:32:58;56.88;;;7.22;;
64467;SDS011;50853;46.836;16.820;2023-11-21T13:35:31;52.40;;;7.82;;
64467;SDS011;50853;46.836;16.820;2023-11-21T13:38:17;36.40;;;6.13;;
64467;SDS011;50853;46.836;16.820;2023-11-21T13:40:48;41.22;;;6.55;;
64467;SDS011;50853;46.836;16.820;2023-11-21T13:43:18;62.10;;;6.85;;
64467;SDS011;50853;46.836;16.820;2023-11-21T13:45:47;65.13;;;6.60;;
64467;SDS011;50853;46.836;16.820;2023-11-21T13:48:26;38.80;;;6.70;;
64467;SDS011;50853;46.836;16.820;2023-11-21T13:51:06;47.15;;;7.60;;
64467;SDS011;50853;46.836;16.820;2023-11-21T13:53:43;69.30;;;6.97;;
64467;SDS011;50853;46.836;16.820;2023-11-21T13:56:17;84.70;;;11.35;;
64467;SDS011;50853;46.836;16.820;2023-11-21T13:58:50;84.95;;;9.85;;
64467;SDS011;50853;46.836;16.820;2023-11-21T14:01:17;55.90;;;6.75;;
64467;SDS011;50853;46.836;16.820;2023-11-21T14:03:59;68.40;;;7.32;;
64467;SDS011;50853;46.836;16.820;2023-11-21T14:06:49;65.25;;;8.00;;
64467;SDS011;50853;46.836;16.820;2023-11-21T14:09:19;50.58;;;8.90;;
64467;SDS011;50853;46.836;16.820;2023-11-21T14:11:58;42.65;;;6.97;;
64467;SDS011;50853;46.836;16.820;2023-11-21T14:14:25;50.60;;;7.60;;
64467;SDS011;50853;46.836;16.820;2023-11-21T14:16:56;54.97;;;7.15;;
64467;SDS011;50853;46.836;16.820;2023-11-21T14:19:23;39.75;;;7.15;;
64467;SDS011;50853;46.836;16.820;2023-11-21T14:21:56;43.17;;;7.68;;
64467;SDS011;50853;46.836;16.820;2023-11-21T14:24:22;51.10;;;7.25;;
64467;SDS011;50853;46.836;16.820;2023-11-21T14:26:49;53.25;;;7.13;;
64467;SDS011;50853;46.836;16.820;2023-11-21T14:29:16;31.97;;;6.53;;
64467;SDS011;50853;46.836;16.820;2023-11-21T14:31:48;38.03;;;7.53;;
64467;SDS011;50853;46.836;16.820;2023-11-21T14:34:16;32.88;;;6.68;;
64467;SDS011;50853;46.836;16.820;2023-11-21T14:36:43;24.48;;;6.15;;
64467;SDS011;50853;46.836;16.820;2023-11-21T14:39:09;46.72;;;7.65;;
64467;SDS011;50853;46.836;16.820;2023-11-21T14:41:48;36.85;;;6.03;;
64467;SDS011;50853;46.836;16.820;2023-11-21T14:44:14;26.63;;;5.85;;
64467;SDS011;50853;46.836;16.820;2023-11-21T14:46:40;35.15;;;6.05;;
64467;SDS011;50853;46.836;16.820;2023-11-21T14:49:11;28.42;;;5.35;;
64467;SDS011;50853;46.836;16.820;2023-11-21T14:54:34;29.25;;;6.45;;
64467;SDS011;50853;46.836;16.820;2023-11-21T14:57:11;27.02;;;5.82;;
64467;SDS011;50853;46.836;16.820;2023-11-21T14:59:43;46.78;;;6.57;;
64467;SDS011;50853;46.836;16.820;2023-11-21T15:02:17;39.55;;;6.28;;
64467;SDS011;50853;46.836;16.820;2023-11-21T15:04:48;26.38;;;5.15;;
64467;SDS011;50853;46.836;16.820;2023-11-21T15:07:17;41.28;;;6.43;;